Time;durP1;ratioP1;P1;durP2;ratioP2;P2;SDS_P1;SDS_P2;PMS_P1;PMS_P2;Temp;Humidity;BMP_temperature;BMP_pressure;BME280_temperature;BME280_humidity;BME280_pressure;Samples;Min_cycle;Max_cycle;Signal;HPM_P1;HPM_P2
2022/04/14 00:01:56;;;;;;;39.83;16.83;;;10.30;74.20;;;;;;4111833;28;20113;-84
2022/04/14 00:03:57;;;;;;;44.80;17.52;;;10.30;74.30;;;;;;4095922;28;20128;-83
2022/04/14 00:05:57;;;;;;;40.65;16.52;;;10.30;74.40;;;;;;4112159;28;20045;-84
2022/04/14 00:07:58;;;;;;;37.58;17.52;;;10.30;74.40;;;;;;4097780;28;20031;-84
2022/04/14 00:09:59;;;;;;;38.90;17.33;;;10.30;74.50;;;;;;4095533;28;20087;-84
2022/04/14 00:11:59;;;;;;;34.65;16.13;;;10.30;74.60;;;;;;4092305;28;20038;-82
2022/04/14 00:14:00;;;;;;;42.00;17.52;;;10.30;74.50;;;;;;4089181;29;20031;-84
2022/04/14 00:16:01;;;;;;;37.85;18.20;;;10.30;74.40;;;;;;4094332;29;20388;-83
2022/04/14 00:18:01;;;;;;;39.22;18.40;;;10.30;74.50;;;;;;4098316;29;20045;-83
2022/04/14 00:20:06;;;;;;;43.17;17.77;;;10.30;74.50;;;;;;4096346;28;20628;-82
2022/04/14 00:22:07;;;;;;;33.90;16.50;;;10.30;74.50;;;;;;4094515;28;20838;-83
2022/04/14 00:24:07;;;;;;;33.40;16.73;;;10.20;74.60;;;;;;4096631;29;20035;-83
2022/04/14 00:26:08;;;;;;;30.90;15.68;;;10.30;74.70;;;;;;4087392;29;20730;-84
2022/04/14 00:28:08;;;;;;;38.05;16.70;;;10.20;74.50;;;;;;4097697;29;20538;-81
2022/04/14 00:30:10;;;;;;;40.30;17.95;;;10.20;74.60;;;;;;4100051;28;20063;-81
2022/04/14 00:32:11;;;;;;;41.00;17.90;;;10.20;74.50;;;;;;4110707;28;20031;-79
2022/04/14 00:34:12;;;;;;;44.53;19.33;;;10.20;74.60;;;;;;4097656;28;20078;-82
2022/04/14 00:36:12;;;;;;;45.50;19.50;;;10.10;74.60;;;;;;4098351;29;20094;-81
2022/04/14 00:38:13;;;;;;;40.85;18.40;;;10.10;74.60;;;;;;4097649;29;20057;-80
2022/04/14 00:40:20;;;;;;;49.95;22.05;;;10.10;74.60;;;;;;4097631;28;20039;-80
2022/04/14 00:42:20;;;;;;;48.97;20.77;;;10.00;75.20;;;;;;4109230;28;20118;-81
2022/04/14 00:44:21;;;;;;;42.72;18.75;;;10.10;75.00;;;;;;4098713;28;20027;-81
2022/04/14 00:46:22;;;;;;;45.17;18.15;;;10.00;74.90;;;;;;4117199;28;20037;-80
2022/04/14 00:48:23;;;;;;;48.42;19.95;;;10.00;75.10;;;;;;4098402;28;20032;-80
2022/04/14 00:50:24;;;;;;;49.35;19.77;;;10.00;75.20;;;;;;4099341;28;20027;-79
2022/04/14 00:52:25;;;;;;;44.55;19.35;;;10.00;75.20;;;;;;4097054;29;20031;-80
2022/04/14 00:54:26;;;;;;;52.95;21.23;;;10.00;75.20;;;;;;4096882;29;20038;-79
2022/04/14 00:56:27;;;;;;;52.03;19.98;;;10.00;75.20;;;;;;4096900;28;20058;-80
2022/04/14 00:58:28;;;;;;;45.38;19.80;;;10.00;75.20;;;;;;4113020;28;20027;-81
2022/04/14 01:00:28;;;;;;;46.17;19.98;;;10.00;75.20;;;;;;4096836;28;20594;-80
2022/04/14 01:02:29;;;;;;;50.42;20.60;;;10.00;75.30;;;;;;4098704;28;20090;-82
2022/04/14 01:04:31;;;;;;;49.22;20.08;;;9.90;75.20;;;;;;4101184;29;20047;-82
2022/04/14 01:06:32;;;;;;;44.80;20.02;;;9.90;75.30;;;;;;4100550;28;20499;-81
2022/04/14 01:08:33;;;;;;;49.30;19.90;;;9.90;75.30;;;;;;4117284;28;20058;-80
2022/04/14 01:10:36;;;;;;;56.47;19.42;;;9.90;75.40;;;;;;4104067;28;20024;-80
2022/04/14 01:12:36;;;;;;;36.53;17.23;;;9.90;75.30;;;;;;4101888;28;20634;-80
2022/04/14 01:14:38;;;;;;;40.15;17.85;;;9.90;75.40;;;;;;4101202;28;20070;-80
2022/04/14 01:16:38;;;;;;;37.08;16.60;;;9.90;75.50;;;;;;4092858;28;20035;-81
2022/04/14 01:18:39;;;;;;;35.10;16.65;;;9.80;75.50;;;;;;4098058;28;20078;-79
2022/04/14 01:20:44;;;;;;;34.05;16.25;;;9.90;75.50;;;;;;4100402;28;20031;-80
2022/04/14 01:22:57;;;;;;;37.13;14.75;;;9.80;75.40;;;;;;4097635;29;20032;-80
2022/04/14 01:24:58;;;;;;;33.38;14.73;;;9.80;75.20;;;;;;4094814;29;20031;-80
2022/04/14 01:27:00;;;;;;;36.10;15.13;;;9.80;75.10;;;;;;4094663;29;20031;-81
2022/04/14 01:29:03;;;;;;;34.50;15.25;;;9.80;75.10;;;;;;4094413;29;20046;-80
2022/04/14 01:31:04;;;;;;;34.45;15.00;;;9.80;75.10;;;;;;4109597;28;20045;-81
2022/04/14 01:33:05;;;;;;;38.40;14.82;;;9.80;75.10;;;;;;4093180;28;20059;-80
2022/04/14 01:35:06;;;;;;;40.22;13.90;;;9.80;75.20;;;;;;4093550;28;20098;-81
2022/04/14 01:37:07;;;;;;;41.33;15.13;;;9.80;75.30;;;;;;4092636;28;20067;-79
2022/04/14 01:39:11;;;;;;;36.03;15.40;;;9.70;75.20;;;;;;4095310;28;20527;-80
2022/04/14 01:41:12;;;;;;;32.13;14.27;;;9.80;75.40;;;;;;4093756;28;20219;-80
2022/04/14 01:43:13;;;;;;;36.70;15.48;;;9.70;75.50;;;;;;4093988;29;20031;-80
2022/04/14 01:45:14;;;;;;;40.90;15.95;;;9.70;75.70;;;;;;4094732;29;20156;-80
2022/04/14 01:47:14;;;;;;;30.83;14.63;;;9.70;75.70;;;;;;4093882;29;20660;-80
2022/04/14 01:49:15;;;;;;;30.45;14.82;;;9.70;75.70;;;;;;4093916;29;20038;-79
2022/04/14 01:51:16;;;;;;;27.73;13.65;;;9.70;75.90;;;;;;4093887;28;20061;-80
2022/04/14 01:53:17;;;;;;;28.45;13.63;;;9.70;75.70;;;;;;4098777;29;20110;-80
2022/04/14 01:55:17;;;;;;;28.50;13.93;;;9.70;75.70;;;;;;4099315;29;20042;-79
2022/04/14 01:57:18;;;;;;;29.23;13.30;;;9.60;75.80;;;;;;4099242;29;20023;-80
2022/04/14 01:59:19;;;;;;;26.92;13.70;;;9.60;75.80;;;;;;4087124;28;20081;-80
2022/04/14 02:01:20;;;;;;;34.38;15.38;;;9.60;75.70;;;;;;4095524;28;20658;-80
2022/04/14 02:03:20;;;;;;;35.90;15.82;;;9.60;76.00;;;;;;4098478;29;20106;-79
2022/04/14 02:05:21;;;;;;;30.08;15.25;;;9.60;76.10;;;;;;4095748;29;20073;-81
2022/04/14 02:07:22;;;;;;;32.75;15.32;;;9.60;76.10;;;;;;4107512;28;21044;-80
2022/04/14 02:09:22;;;;;;;37.83;16.42;;;9.60;76.10;;;;;;4093513;28;20035;-80
2022/04/14 02:11:23;;;;;;;37.25;16.42;;;9.60;76.20;;;;;;4094258;28;20023;-80
2022/04/14 02:13:24;;;;;;;43.15;17.20;;;9.60;76.30;;;;;;4093809;29;20039;-81
2022/04/14 02:15:25;;;;;;;38.53;17.48;;;9.60;76.40;;;;;;4108602;28;20031;-80
2022/04/14 02:17:25;;;;;;;38.35;18.00;;;9.50;76.30;;;;;;4091761;28;20035;-80
2022/04/14 02:19:26;;;;;;;39.40;17.70;;;9.60;76.40;;;;;;4091805;29;20129;-80
2022/04/14 02:21:26;;;;;;;33.97;16.48;;;9.60;76.60;;;;;;4108525;28;20486;-81
2022/04/14 02:23:27;;;;;;;37.75;17.55;;;9.60;76.60;;;;;;4091558;28;20704;-80
2022/04/14 02:25:28;;;;;;;33.83;16.50;;;9.60;76.60;;;;;;4089423;29;20041;-80
2022/04/14 02:27:29;;;;;;;31.27;16.10;;;9.50;76.70;;;;;;4094169;28;20046;-81
2022/04/14 02:29:29;;;;;;;32.30;15.13;;;9.50;76.70;;;;;;4092089;29;20512;-79
2022/04/14 02:31:30;;;;;;;38.95;16.88;;;9.60;76.70;;;;;;4093880;29;20042;-80
2022/04/14 02:33:31;;;;;;;36.58;17.23;;;9.60;76.70;;;;;;4094063;29;20082;-80
2022/04/14 02:35:32;;;;;;;38.72;17.52;;;9.60;76.90;;;;;;4093488;29;20534;-81
2022/04/14 02:37:32;;;;;;;36.58;16.80;;;9.50;77.20;;;;;;4084698;29;20089;-80
2022/04/14 02:39:33;;;;;;;41.30;17.42;;;9.50;76.90;;;;;;4087496;29;20035;-80
2022/04/14 02:41:34;;;;;;;44.15;16.67;;;9.60;77.10;;;;;;4103738;28;20037;-80
2022/04/14 02:43:38;;;;;;;38.47;17.15;;;9.60;77.20;;;;;;4093040;28;20102;-79
2022/04/14 02:45:39;;;;;;;40.03;16.67;;;9.50;77.10;;;;;;4092437;28;20071;-81
2022/04/14 02:47:40;;;;;;;39.05;17.63;;;9.50;77.40;;;;;;4093901;29;20032;-81
2022/04/14 02:49:40;;;;;;;38.65;17.55;;;9.50;77.30;;;;;;4093265;29;20034;-79
2022/04/14 02:51:41;;;;;;;35.17;16.90;;;9.50;77.30;;;;;;4091281;28;20496;-80
2022/04/14 02:53:42;;;;;;;38.88;17.42;;;9.60;77.40;;;;;;4094343;28;20035;-80
2022/04/14 02:55:42;;;;;;;41.25;18.45;;;9.50;77.30;;;;;;4095774;29;20777;-82
2022/04/14 02:57:43;;;;;;;47.85;20.00;;;9.50;77.50;;;;;;4107510;28;20030;-82
2022/04/14 02:59:44;;;;;;;45.13;19.75;;;9.60;77.70;;;;;;4094263;28;20035;-81
2022/04/14 03:01:44;;;;;;;47.38;20.25;;;9.60;77.50;;;;;;4107187;28;20031;-82
2022/04/14 03:03:45;;;;;;;50.55;20.85;;;9.60;77.70;;;;;;4093084;28;20042;-82
2022/04/14 03:05:46;;;;;;;49.95;22.05;;;9.60;77.80;;;;;;4092962;29;20063;-81
2022/04/14 03:07:47;;;;;;;50.22;20.80;;;9.50;77.90;;;;;;4092723;28;20102;-81
2022/04/14 03:09:48;;;;;;;45.83;20.70;;;9.50;77.80;;;;;;4095057;29;20038;-82
2022/04/14 03:11:49;;;;;;;56.00;22.50;;;9.50;77.80;;;;;;4092030;29;20032;-82
2022/04/14 03:13:49;;;;;;;45.72;21.13;;;9.50;78.00;;;;;;4093015;28;20030;-82
2022/04/14 03:15:51;;;;;;;56.30;22.83;;;9.60;77.90;;;;;;4094083;28;20027;-82
2022/04/14 03:17:51;;;;;;;54.85;23.20;;;9.60;78.00;;;;;;4092979;28;20090;-83
2022/04/14 03:19:52;;;;;;;52.40;23.70;;;9.50;78.10;;;;;;4094539;29;20047;-82
2022/04/14 03:21:52;;;;;;;62.33;23.58;;;9.60;78.50;;;;;;4094187;28;20038;-81
2022/04/14 03:23:53;;;;;;;61.13;23.52;;;9.60;78.30;;;;;;4092953;29;20568;-82
2022/04/14 03:25:54;;;;;;;57.30;24.50;;;9.60;78.20;;;;;;4091644;28;20039;-83
2022/04/14 03:27:54;;;;;;;61.15;23.92;;;9.60;78.30;;;;;;4094733;29;20027;-82
2022/04/14 03:29:55;;;;;;;63.17;23.65;;;9.60;78.40;;;;;;4094124;29;20082;-81
2022/04/14 03:31:55;;;;;;;64.85;23.40;;;9.60;78.20;;;;;;4093850;28;20063;-82
2022/04/14 03:33:56;;;;;;;55.03;23.85;;;9.60;78.40;;;;;;4089565;29;20028;-82
2022/04/14 03:35:57;;;;;;;66.30;25.27;;;9.60;78.40;;;;;;4094289;29;20038;-81
2022/04/14 03:37:58;;;;;;;60.53;23.73;;;9.60;78.50;;;;;;4094328;29;20604;-80
2022/04/14 03:39:58;;;;;;;50.95;22.83;;;9.70;78.50;;;;;;4094439;29;20046;-82
2022/04/14 03:41:59;;;;;;;51.30;22.35;;;9.60;78.50;;;;;;4092844;28;20502;-81
2022/04/14 03:43:59;;;;;;;52.70;22.25;;;9.60;78.50;;;;;;4076154;29;20030;-82
2022/04/14 03:46:01;;;;;;;54.90;23.65;;;9.60;78.50;;;;;;4094700;29;20798;-82
2022/04/14 03:48:01;;;;;;;54.47;23.02;;;9.60;78.50;;;;;;4094116;29;20591;-82
2022/04/14 03:50:03;;;;;;;56.90;23.35;;;9.60;78.60;;;;;;4108891;28;20019;-80
2022/04/14 03:52:04;;;;;;;48.83;22.40;;;9.60;78.40;;;;;;4093099;28;20027;-82
2022/04/14 03:54:05;;;;;;;54.80;22.25;;;9.60;78.50;;;;;;4108802;28;20030;-81
2022/04/14 03:56:05;;;;;;;48.10;21.35;;;9.60;78.40;;;;;;4093296;28;20039;-82
2022/04/14 03:58:06;;;;;;;53.90;22.23;;;9.60;78.50;;;;;;4094533;28;20071;-82
2022/04/14 04:00:08;;;;;;;47.58;22.60;;;9.60;78.50;;;;;;4097867;29;20028;-81
2022/04/14 04:02:08;;;;;;;53.30;24.15;;;9.60;78.50;;;;;;4097061;28;20086;-82
2022/04/14 04:04:09;;;;;;;49.40;23.27;;;9.60;79.40;;;;;;4096530;29;20035;-81
2022/04/14 04:06:09;;;;;;;52.05;24.65;;;9.60;78.50;;;;;;4096844;29;20703;-83
2022/04/14 04:08:10;;;;;;;50.72;23.67;;;9.60;78.60;;;;;;4100026;29;20031;-82
2022/04/14 04:10:11;;;;;;;49.60;23.38;;;9.60;78.60;;;;;;4101605;28;20098;-82
2022/04/14 04:12:11;;;;;;;45.55;22.13;;;9.60;78.50;;;;;;4101034;29;20029;-81
2022/04/14 04:14:12;;;;;;;47.28;21.77;;;9.60;78.50;;;;;;4099232;28;20023;-82
2022/04/14 04:16:13;;;;;;;48.38;23.10;;;9.60;78.50;;;;;;4097516;28;20023;-82
2022/04/14 04:18:13;;;;;;;54.78;23.73;;;9.60;78.50;;;;;;4100682;28;20625;-83
2022/04/14 04:20:15;;;;;;;53.97;25.08;;;9.60;78.50;;;;;;4100238;29;20039;-81
2022/04/14 04:22:15;;;;;;;54.33;22.73;;;9.60;78.60;;;;;;4101553;28;20030;-83
2022/04/14 04:24:16;;;;;;;52.30;22.52;;;9.60;78.60;;;;;;4100378;29;20023;-84
2022/04/14 04:26:16;;;;;;;49.05;24.05;;;9.60;78.60;;;;;;4088034;29;20035;-80
2022/04/14 04:28:17;;;;;;;59.28;25.25;;;9.60;78.60;;;;;;4109001;29;20031;-82
2022/04/14 04:30:18;;;;;;;58.25;23.75;;;9.60;78.70;;;;;;4102558;28;20416;-83
2022/04/14 04:32:18;;;;;;;54.85;25.38;;;9.60;78.70;;;;;;4114861;28;20030;-81
2022/04/14 04:34:19;;;;;;;50.85;24.08;;;9.60;78.90;;;;;;4102123;28;20023;-83
2022/04/14 04:36:20;;;;;;;53.75;23.58;;;9.60;78.70;;;;;;4102427;29;20038;-82
2022/04/14 04:38:21;;;;;;;51.03;23.70;;;9.60;78.60;;;;;;4101057;29;20027;-82
2022/04/14 04:40:22;;;;;;;60.70;25.20;;;9.70;78.70;;;;;;4098999;28;20043;-82
2022/04/14 04:42:22;;;;;;;59.03;24.95;;;9.60;78.80;;;;;;4093408;29;20038;-81
2022/04/14 04:44:23;;;;;;;56.55;23.20;;;9.60;78.70;;;;;;4101594;29;20085;-82
2022/04/14 04:46:23;;;;;;;63.03;25.42;;;9.60;78.70;;;;;;4092458;29;20039;-81
2022/04/14 04:48:24;;;;;;;59.13;26.40;;;9.70;78.70;;;;;;4092201;29;20567;-82
2022/04/14 04:50:25;;;;;;;60.15;25.42;;;9.60;78.70;;;;;;4097232;28;20031;-83
2022/04/14 04:52:25;;;;;;;66.93;25.70;;;9.60;78.80;;;;;;4096332;29;20035;-82
2022/04/14 04:54:26;;;;;;;62.45;26.52;;;9.60;78.90;;;;;;4096027;29;20066;-81
2022/04/14 04:56:27;;;;;;;56.85;25.80;;;9.60;78.90;;;;;;4109225;28;20031;-82
2022/04/14 04:58:28;;;;;;;60.25;27.80;;;9.60;78.80;;;;;;4095941;28;20109;-82
2022/04/14 05:00:28;;;;;;;53.33;27.10;;;9.60;79.10;;;;;;4094916;28;20036;-80
2022/04/14 05:02:29;;;;;;;63.08;25.80;;;9.60;79.00;;;;;;4110552;28;20030;-81
2022/04/14 05:04:29;;;;;;;60.47;26.25;;;9.70;79.30;;;;;;4093823;28;20059;-82
2022/04/14 05:06:30;;;;;;;66.45;25.63;;;9.60;79.10;;;;;;4110459;28;20201;-82
2022/04/14 05:08:30;;;;;;;71.15;28.08;;;9.60;79.10;;;;;;4094214;28;20139;-82
2022/04/14 05:10:32;;;;;;;64.68;25.33;;;9.70;79.30;;;;;;4109579;28;20043;-82
2022/04/14 05:12:34;;;;;;;61.28;26.95;;;9.60;79.20;;;;;;4094509;28;20074;-82
2022/04/14 05:14:34;;;;;;;69.25;27.45;;;9.60;79.20;;;;;;4095806;29;20031;-83
2022/04/14 05:16:35;;;;;;;70.03;26.90;;;9.60;79.10;;;;;;4096117;28;20038;-82
2022/04/14 05:18:36;;;;;;;69.25;27.35;;;9.70;79.30;;;;;;4089288;28;20089;-82
2022/04/14 05:20:36;;;;;;;70.75;26.88;;;9.60;79.20;;;;;;4091301;28;20094;-82
2022/04/14 05:22:37;;;;;;;69.85;25.95;;;9.60;79.30;;;;;;4093618;28;20719;-83
2022/04/14 05:24:38;;;;;;;72.82;28.80;;;9.60;79.20;;;;;;4094755;28;20061;-81
2022/04/14 05:26:38;;;;;;;70.90;26.70;;;9.60;79.10;;;;;;4094837;29;20066;-83
2022/04/14 05:28:39;;;;;;;63.92;26.40;;;9.70;79.30;;;;;;4107209;28;20026;-83
2022/04/14 05:30:39;;;;;;;67.68;26.80;;;9.70;79.30;;;;;;4107295;28;20027;-83
2022/04/14 05:32:40;;;;;;;70.38;26.80;;;9.70;79.30;;;;;;4093075;28;20317;-80
2022/04/14 05:34:41;;;;;;;72.57;27.05;;;9.70;79.40;;;;;;4095381;28;20035;-82
2022/04/14 05:36:41;;;;;;;65.18;25.98;;;9.70;79.40;;;;;;4095507;28;20027;-82
2022/04/14 05:38:42;;;;;;;68.18;24.50;;;9.70;79.50;;;;;;4095796;29;20586;-82
2022/04/14 05:40:45;;;;;;;66.90;25.63;;;9.70;79.50;;;;;;4094804;28;20063;-82
2022/04/14 05:42:46;;;;;;;69.80;24.65;;;9.70;79.50;;;;;;4094099;29;20039;-83
2022/04/14 05:44:47;;;;;;;67.38;27.17;;;9.70;79.80;;;;;;4109996;28;20038;-82
2022/04/14 05:46:48;;;;;;;59.60;24.38;;;9.70;79.70;;;;;;4109997;28;20039;-82
2022/04/14 05:48:49;;;;;;;64.22;23.70;;;9.70;79.70;;;;;;4096549;28;20028;-83
2022/04/14 05:50:50;;;;;;;73.10;27.02;;;9.70;79.70;;;;;;4093813;28;20034;-83
2022/04/14 05:52:51;;;;;;;66.28;25.58;;;9.80;80.20;;;;;;4094288;28;20794;-82
2022/04/14 05:54:51;;;;;;;62.50;24.55;;;9.80;80.10;;;;;;4097210;29;20031;-81
2022/04/14 05:56:52;;;;;;;63.20;25.27;;;9.70;79.90;;;;;;4096216;28;20023;-82
2022/04/14 05:58:54;;;;;;;61.17;25.45;;;9.80;80.00;;;;;;4096124;29;20106;-82
2022/04/14 06:00:54;;;;;;;60.10;25.92;;;9.80;80.10;;;;;;4095069;28;20562;-82
2022/04/14 06:02:55;;;;;;;56.28;23.15;;;9.90;80.20;;;;;;4112111;28;20034;-83
2022/04/14 06:04:55;;;;;;;62.90;23.33;;;9.90;80.10;;;;;;4097452;28;20079;-82
2022/04/14 06:06:56;;;;;;;59.00;24.45;;;9.80;80.00;;;;;;4096370;29;20113;-82
2022/04/14 06:08:57;;;;;;;58.45;23.48;;;9.90;80.20;;;;;;4110068;28;20121;-83
2022/04/14 06:10:58;;;;;;;63.03;25.38;;;9.90;80.10;;;;;;4095801;28;20061;-83
2022/04/14 06:12:59;;;;;;;50.85;23.55;;;9.90;80.10;;;;;;4094428;29;20027;-82
2022/04/14 06:14:59;;;;;;;53.30;22.90;;;9.90;80.10;;;;;;4092831;29;20483;-82
2022/04/14 06:17:00;;;;;;;59.22;25.02;;;9.90;79.90;;;;;;4095541;28;20027;-83
2022/04/14 06:19:01;;;;;;;62.75;25.45;;;9.90;79.90;;;;;;4096286;29;20043;-82
2022/04/14 06:21:01;;;;;;;59.67;23.77;;;9.90;80.70;;;;;;4097061;28;20034;-81
2022/04/14 06:23:02;;;;;;;59.72;23.17;;;10.00;79.90;;;;;;4095520;29;20034;-81
2022/04/14 06:25:03;;;;;;;54.83;23.17;;;10.00;79.90;;;;;;4110467;28;20037;-83
2022/04/14 06:27:05;;;;;;;56.40;23.20;;;10.00;79.80;;;;;;4097516;28;20027;-83
2022/04/14 06:29:06;;;;;;;66.68;24.00;;;10.00;79.90;;;;;;4095949;29;20039;-82
2022/04/14 06:31:07;;;;;;;48.85;21.85;;;10.00;80.00;;;;;;4096167;28;20027;-83
2022/04/14 06:33:07;;;;;;;57.10;22.75;;;10.10;79.80;;;;;;4094340;29;20034;-83
2022/04/14 06:35:13;;;;;;;52.97;21.52;;;10.10;79.80;;;;;;4079517;29;20119;-82
2022/04/14 06:37:14;;;;;;;52.83;23.20;;;10.10;79.80;;;;;;4111210;28;20105;-81
2022/04/14 06:39:15;;;;;;;53.75;23.42;;;10.10;79.60;;;;;;4096505;28;20031;-83
2022/04/14 06:41:15;;;;;;;53.22;21.98;;;10.20;79.70;;;;;;4109702;28;20042;-83
2022/04/14 06:43:16;;;;;;;48.63;21.48;;;10.20;79.60;;;;;;4091197;29;20038;-82
2022/04/14 06:45:17;;;;;;;56.53;23.80;;;10.20;79.60;;;;;;4090729;29;20035;-81
2022/04/14 06:47:17;;;;;;;57.42;23.90;;;10.20;79.60;;;;;;4096932;28;20028;-83
2022/04/14 06:49:19;;;;;;;62.22;25.40;;;10.20;79.40;;;;;;4095879;29;20019;-83
2022/04/14 06:51:19;;;;;;;53.13;23.50;;;10.30;79.40;;;;;;4111892;28;20487;-83
2022/04/14 06:53:20;;;;;;;54.25;23.60;;;10.30;79.20;;;;;;4095601;28;20027;-82
2022/04/14 06:55:21;;;;;;;53.33;23.17;;;10.30;79.00;;;;;;4096673;29;20114;-82
2022/04/14 06:57:22;;;;;;;57.28;23.10;;;10.30;79.00;;;;;;4095255;29;20082;-82
2022/04/14 06:59:23;;;;;;;59.63;22.90;;;10.40;78.90;;;;;;4094522;29;20039;-82
2022/04/14 07:01:23;;;;;;;50.08;22.17;;;10.30;78.90;;;;;;4096485;28;20455;-81
2022/04/14 07:03:26;;;;;;;50.35;22.98;;;10.50;78.90;;;;;;4109318;28;20027;-82
2022/04/14 07:05:27;;;;;;;47.47;22.15;;;10.40;79.00;;;;;;4096315;29;20027;-82
2022/04/14 07:07:27;;;;;;;43.15;21.60;;;10.50;79.10;;;;;;4110868;28;20022;-82
2022/04/14 07:09:34;;;;;;;59.22;24.52;;;10.60;79.20;;;;;;4084093;29;20049;-82
2022/04/14 07:11:35;;;;;;;52.13;22.75;;;10.60;79.30;;;;;;4092228;28;20027;-83
2022/04/14 07:13:36;;;;;;;44.28;20.75;;;10.70;79.10;;;;;;4096677;29;20496;-81
2022/04/14 07:15:37;;;;;;;46.28;21.38;;;10.70;79.10;;;;;;4097565;29;20042;-82
2022/04/14 07:17:38;;;;;;;55.60;23.33;;;10.80;79.40;;;;;;4112010;28;20023;-82
2022/04/14 07:19:38;;;;;;;47.35;21.75;;;10.90;79.20;;;;;;4095996;28;20648;-82
2022/04/14 07:21:39;;;;;;;52.08;22.05;;;10.90;79.00;;;;;;4093411;28;20034;-82
2022/04/14 07:23:39;;;;;;;47.58;20.35;;;10.90;78.90;;;;;;4095063;29;20181;-83
2022/04/14 07:25:40;;;;;;;45.97;20.98;;;11.00;78.90;;;;;;4098234;28;20039;-82
2022/04/14 07:27:41;;;;;;;45.90;21.65;;;11.00;78.70;;;;;;4079301;29;20094;-81
2022/04/14 07:29:43;;;;;;;40.38;19.90;;;11.10;78.40;;;;;;4095873;28;20019;-82
2022/04/14 07:31:45;;;;;;;37.17;18.20;;;11.20;78.30;;;;;;4092662;28;20062;-82
2022/04/14 07:33:46;;;;;;;45.42;19.60;;;11.30;78.10;;;;;;4097314;29;20027;-82
2022/04/14 07:35:50;;;;;;;36.25;18.88;;;11.30;77.70;;;;;;4104286;29;20065;-83
2022/04/14 07:37:52;;;;;;;35.58;17.38;;;11.40;77.40;;;;;;4099912;28;20159;-83
2022/04/14 07:39:52;;;;;;;40.17;19.15;;;11.50;77.00;;;;;;4095958;29;20035;-82
2022/04/14 07:41:53;;;;;;;35.75;18.10;;;11.50;76.80;;;;;;4099060;28;20038;-84
2022/04/14 07:43:54;;;;;;;40.42;16.83;;;11.60;76.80;;;;;;4111737;28;20530;-83
2022/04/14 07:45:55;;;;;;;40.95;18.90;;;11.70;76.70;;;;;;4096729;29;20046;-83
2022/04/14 07:47:55;;;;;;;34.58;17.85;;;11.70;76.50;;;;;;4099324;29;20075;-82
2022/04/14 07:49:56;;;;;;;40.78;17.77;;;11.80;76.30;;;;;;4096718;29;20031;-81
2022/04/14 07:51:57;;;;;;;38.60;16.75;;;11.90;75.80;;;;;;4096888;28;20094;-82
2022/04/14 07:53:58;;;;;;;33.55;16.52;;;11.90;75.40;;;;;;4079778;29;20499;-83
2022/04/14 07:55:59;;;;;;;35.15;15.77;;;12.00;74.90;;;;;;4091541;28;20389;-81
2022/04/14 07:58:04;;;;;;;37.10;16.08;;;12.10;74.60;;;;;;4098460;29;20034;-82
2022/04/14 08:00:07;;;;;;;31.27;16.20;;;12.10;74.20;;;;;;4098132;28;20027;-82
2022/04/14 08:02:07;;;;;;;29.50;14.82;;;12.20;74.00;;;;;;4112163;28;20038;-83
2022/04/14 08:04:08;;;;;;;35.28;15.82;;;12.30;73.80;;;;;;4095719;29;20492;-83
2022/04/14 08:06:10;;;;;;;26.73;14.15;;;12.30;73.40;;;;;;4094764;29;20110;-83
2022/04/14 08:08:15;;;;;;;28.13;14.70;;;12.40;73.40;;;;;;4096114;29;20090;-83
2022/04/14 08:10:16;;;;;;;30.23;15.48;;;12.50;72.40;;;;;;4098694;28;20037;-82
2022/04/14 08:12:16;;;;;;;28.50;14.75;;;12.50;72.90;;;;;;4097341;28;20118;-82
2022/04/14 08:14:17;;;;;;;31.70;15.55;;;12.60;72.40;;;;;;4097681;28;20027;-83
2022/04/14 08:16:18;;;;;;;29.23;14.35;;;12.60;71.90;;;;;;4097688;29;20035;-82
2022/04/14 08:18:19;;;;;;;31.98;14.15;;;12.70;71.70;;;;;;4080772;29;20032;-82
2022/04/14 08:20:19;;;;;;;29.13;14.68;;;12.80;71.60;;;;;;4097464;28;20527;-83
2022/04/14 08:22:20;;;;;;;27.85;15.32;;;12.80;71.10;;;;;;4096658;29;20035;-81
2022/04/14 08:24:21;;;;;;;35.58;16.00;;;12.90;70.80;;;;;;4098372;29;20075;-83
2022/04/14 08:26:22;;;;;;;29.98;13.55;;;12.90;70.90;;;;;;4111415;28;20038;-83
2022/04/14 08:28:22;;;;;;;33.95;15.25;;;13.00;70.90;;;;;;4097718;28;20629;-83
2022/04/14 08:30:25;;;;;;;22.63;12.88;;;13.10;70.50;;;;;;4096028;28;20019;-82
2022/04/14 08:32:25;;;;;;;27.33;14.27;;;13.20;70.60;;;;;;4092093;29;20079;-82
2022/04/14 08:34:26;;;;;;;31.45;14.40;;;13.20;70.20;;;;;;4098613;28;20074;-84
2022/04/14 08:36:27;;;;;;;27.85;13.68;;;13.30;70.60;;;;;;4096690;29;20032;-83
2022/04/14 08:38:28;;;;;;;30.77;14.20;;;13.40;69.80;;;;;;4096957;28;20023;-81
2022/04/14 08:40:34;;;;;;;24.52;11.93;;;13.50;69.60;;;;;;4094094;28;20103;-83
2022/04/14 08:42:40;;;;;;;25.63;12.98;;;13.60;68.90;;;;;;4079359;29;20027;-84
2022/04/14 08:44:49;;;;;;;25.40;12.07;;;13.70;68.50;;;;;;4094123;28;20043;-83
2022/04/14 08:46:50;;;;;;;24.88;12.13;;;13.80;68.00;;;;;;4096155;28;20054;-82
2022/04/14 08:48:53;;;;;;;18.88;10.35;;;13.80;67.50;;;;;;4096849;28;20023;-82
2022/04/14 08:50:54;;;;;;;21.20;11.15;;;13.90;67.10;;;;;;4093160;28;20464;-83
2022/04/14 08:52:55;;;;;;;21.23;10.05;;;13.90;66.70;;;;;;4095920;28;20103;-83
2022/04/14 08:54:56;;;;;;;20.52;11.32;;;14.00;66.20;;;;;;4093531;28;20027;-82
2022/04/14 08:56:58;;;;;;;21.50;11.13;;;14.00;65.40;;;;;;4111728;28;20068;-82
2022/04/14 08:59:00;;;;;;;21.83;10.70;;;14.10;65.60;;;;;;4114083;28;20111;-83
2022/04/14 09:01:01;;;;;;;26.42;11.00;;;14.10;65.70;;;;;;4112404;28;20035;-83
2022/04/14 09:03:03;;;;;;;23.08;10.73;;;14.20;65.60;;;;;;4097279;28;20444;-83
2022/04/14 09:05:05;;;;;;;21.15;10.80;;;14.20;65.10;;;;;;4112698;28;20037;-83
2022/04/14 09:07:06;;;;;;;19.98;10.25;;;14.30;65.00;;;;;;4097687;29;20043;-83
2022/04/14 09:09:08;;;;;;;23.98;10.38;;;14.30;64.40;;;;;;4096817;28;20302;-82
2022/04/14 09:11:09;;;;;;;19.58;9.70;;;14.40;64.20;;;;;;4092771;29;20039;-83
2022/04/14 09:13:13;;;;;;;19.25;10.35;;;14.40;64.50;;;;;;4095322;29;20458;-83
2022/04/14 09:15:15;;;;;;;20.50;10.13;;;14.50;64.10;;;;;;4098007;28;20042;-83
2022/04/14 09:17:15;;;;;;;16.85;9.48;;;14.50;63.80;;;;;;4068688;29;20056;-82
2022/04/14 09:19:16;;;;;;;16.38;8.32;;;14.60;63.90;;;;;;4108527;28;20109;-83
2022/04/14 09:21:17;;;;;;;23.02;9.65;;;14.60;63.70;;;;;;4096179;29;20023;-82
2022/04/14 09:23:23;;;;;;;19.30;9.07;;;14.60;63.60;;;;;;4096233;29;20031;-82
2022/04/14 09:25:24;;;;;;;18.73;9.75;;;14.70;63.40;;;;;;4095808;29;20031;-82
2022/04/14 09:27:29;;;;;;;19.17;9.90;;;14.70;63.40;;;;;;4096549;29;20051;-84
2022/04/14 09:29:29;;;;;;;19.30;9.43;;;14.70;63.00;;;;;;4093472;28;20073;-82
2022/04/14 09:31:44;;;;;;;24.75;9.68;;;14.80;62.40;;;;;;4099385;28;20448;-84
2022/04/14 09:33:46;;;;;;;14.38;8.02;;;14.80;62.00;;;;;;4098243;29;20038;-82
2022/04/14 09:36:19;;;;;;;13.45;7.53;;;14.80;62.40;;;;;;4098330;29;20027;-83
2022/04/14 09:38:20;;;;;;;19.33;8.93;;;14.90;61.90;;;;;;4097492;28;20027;-84
2022/04/14 09:40:21;;;;;;;16.25;7.95;;;14.90;62.50;;;;;;4101275;28;20054;-84
2022/04/14 09:42:23;;;;;;;12.32;6.55;;;15.00;62.30;;;;;;4097778;29;20119;-82
2022/04/14 09:44:24;;;;;;;17.42;7.57;;;15.00;61.20;;;;;;4112580;28;20065;-85
2022/04/14 09:46:25;;;;;;;14.55;7.45;;;15.10;60.80;;;;;;4097454;28;20024;-83
2022/04/14 09:48:26;;;;;;;19.85;8.38;;;15.10;60.80;;;;;;4100254;28;20035;-83
2022/04/14 09:50:34;;;;;;;16.67;8.52;;;15.10;60.90;;;;;;4102177;28;20024;-83
2022/04/14 09:53:07;;;;;;;17.08;8.25;;;15.10;60.90;;;;;;4098067;29;20036;-84
2022/04/14 09:55:09;;;;;;;17.25;7.82;;;15.20;61.20;;;;;;4098887;28;20444;-83
2022/04/14 09:57:12;;;;;;;17.30;7.35;;;15.20;60.20;;;;;;4096659;29;20033;-82
2022/04/14 09:59:14;;;;;;;;;;;15.20;59.60;;;;;;4108635;28;20041;-82
2022/04/14 10:01:19;;;;;;;14.95;7.35;;;15.30;59.40;;;;;;4099355;28;19906;-82
2022/04/14 10:03:23;;;;;;;13.40;6.90;;;15.30;59.50;;;;;;4097571;29;20070;-82
2022/04/14 10:05:34;;;;;;;11.60;6.60;;;15.20;58.80;;;;;;4098720;29;20039;-82
2022/04/14 10:07:35;;;;;;;12.07;6.93;;;15.20;58.60;;;;;;4094791;29;20034;-81
2022/04/14 10:09:40;;;;;;;16.70;7.22;;;15.20;58.40;;;;;;4098553;29;20023;-82
2022/04/14 10:11:41;;;;;;;16.45;7.57;;;15.20;58.60;;;;;;4098846;28;20051;-81
2022/04/14 10:13:41;;;;;;;16.45;7.20;;;15.10;58.50;;;;;;4101333;29;20019;-82
2022/04/14 10:15:44;;;;;;;18.23;7.57;;;15.10;59.00;;;;;;4098534;29;20039;-84
2022/04/14 10:17:45;;;;;;;19.63;7.68;;;15.10;59.00;;;;;;4100216;29;20065;-81
2022/04/14 10:19:46;;;;;;;15.85;7.25;;;15.10;59.10;;;;;;4095886;29;20495;-82
2022/04/14 10:21:48;;;;;;;18.02;8.13;;;15.10;59.50;;;;;;4095827;29;20055;-82